Portada
METAR-TAF:

METAR-TAF

Aeroports :

Aeroport d'Ouagadougou

Ouagadougou, Burkina Faso

latitud: 12-21N, longitud: 001-31W, altitud: 316 m

Observació

L'informe es va fer fa 51 minuts, a les 13:00 UTC
Vent 9 kt del Nord/Nord-Est, variant entre Nord/Nord-Oest i Est/Nord-Est
Temperatura 40°C
Humitat 6%
Pressió 1009 hPa
Visibilitat 10 km o més
sense núvols per sota de 1500 mi sense presència de cumulonimbus.

METAR: DFFD 241300Z 03009KT 340V070 CAVOK 40/M04 Q1009 NOSIG

Hora: 13:51 (13:51 UTC)

Pronòstic

L'informe es va fer fa 2 hores i 51 minuts, a les 11:00 UTC
Pronòstic vàlid del 24 a les 12 UTC al 25 a les 18 UTC
Vent 10 kt del Est/Nord-Est
Visibilitat: 8000 m
Temporalment
l' 25 a les 06 UTC al 25 a les 10 UTC
Visibilitat: 4000 m
Pols estès

TAF: DFFD 241100Z 2412/2518 06010KT 8000 NSC TEMPO 2506/2510 4000 DU

Observacions i pronòstics meteorològics de més de 4000 aeroports (METAR i TAF).

Les estacions disponibles són els punts grocs i vermells al mapa.

Posi el ratolí al punt desitjat per veure el nom de l'estació.

Feu clic per veure les observacions i els pronòstics meteorològics.

Per canviar el mapa: feu clic els botons verds amb una creu de color negre per apropar; al botó verd amb un guió per allunyar la imatge; o en les fletxes verdes per a mapes adjacents.


METAR-TAF: